Startpagina
METAR-TAF:

METAR-TAF

Vliegvelden :

Machala, Ecuador

breedte: 03-26-07S, lengte: 079-58-40W, hoogte: 52 m

Actueel weer

Dit bericht is 8 uur en het 39 minuten geleden gemaakt, om 02:00 UTC
Wind 5 kt uit het noordwesten
Temperatuur 25°C
Vochtigheid 79%
Druk 1012 hPa
Zicht 10 km of meer
Geheel bewolkt op 2000 ft

METAR: SERO 160200Z 32005KT 9999 OVC020 25/21 Q1012

Tijdstip: 05:39 (10:39 UTC)


TAF: ontbreekt

Waarnemingen en weersverwachtingen van meer dan 4000 vliegvelden (METAR en TAF).

De beschikbare stations zijn de gele en rode punten op de kaart.

Ga met uw muis naar het station om de naam te zien.

Klik dan om waarnemingen en weersverwachtingen te zien.

kaart wijzigen: klik op de groene knoppen met een zwart kruis om in te zoomen, op de groene knop met een streepje om uit te zoomen of op de groene pijlen voor aangrenzende kaarten.


METAR-TAF: